sensor_id;sensor_type;location;lat;lon;timestamp;P1;P2;P0
65574;PMS5003;73096;55.050;73.422;2024-01-07T00:00:46;2.25;1.50;0.00
65574;PMS5003;73096;55.050;73.422;2024-01-07T00:03:51;2.00;2.00;0.00
65574;PMS5003;73096;55.050;73.422;2024-01-07T00:06:54;2.00;1.67;0.00
65574;PMS5003;73096;55.050;73.422;2024-01-07T00:09:57;1.00;1.00;0.00
65574;PMS5003;73096;55.050;73.422;2024-01-07T00:12:59;1.00;1.00;0.00
65574;PMS5003;73096;55.050;73.422;2024-01-07T00:16:03;3.00;2.00;0.00
65574;PMS5003;73096;55.050;73.422;2024-01-07T00:19:06;3.00;3.00;1.00
65574;PMS5003;73096;55.050;73.422;2024-01-07T00:22:08;3.67;3.33;1.00
65574;PMS5003;73096;55.050;73.422;2024-01-07T00:25:11;4.25;4.00;1.50
65574;PMS5003;73096;55.050;73.422;2024-01-07T00:28:14;7.25;6.00;3.50
65574;PMS5003;73096;55.050;73.422;2024-01-07T00:31:16;6.00;4.25;3.25
65574;PMS5003;73096;55.050;73.422;2024-01-07T00:34:18;9.33;8.00;4.33
65574;PMS5003;73096;55.050;73.422;2024-01-07T00:37:20;11.00;9.25;3.50
65574;PMS5003;73096;55.050;73.422;2024-01-07T00:40:23;13.00;11.00;4.00
65574;PMS5003;73096;55.050;73.422;2024-01-07T00:43:25;11.00;11.00;3.00
65574;PMS5003;73096;55.050;73.422;2024-01-07T00:46:27;10.00;9.25;3.00
65574;PMS5003;73096;55.050;73.422;2024-01-07T00:49:30;7.50;6.00;3.00
65574;PMS5003;73096;55.050;73.422;2024-01-07T00:52:32;8.00;5.75;3.50
65574;PMS5003;73096;55.050;73.422;2024-01-07T00:55:36;9.00;8.00;3.00
65574;PMS5003;73096;55.050;73.422;2024-01-07T00:58:39;9.00;8.00;3.00
65574;PMS5003;73096;55.050;73.422;2024-01-07T01:01:41;10.00;7.00;2.00
65574;PMS5003;73096;55.050;73.422;2024-01-07T01:04:43;10.75;7.50;2.75
65574;PMS5003;73096;55.050;73.422;2024-01-07T01:07:46;9.00;5.25;1.00
65574;PMS5003;73096;55.050;73.422;2024-01-07T01:10:49;9.00;7.00;1.33
65574;PMS5003;73096;55.050;73.422;2024-01-07T01:13:52;8.00;6.00;2.00
65574;PMS5003;73096;55.050;73.422;2024-01-07T01:16:55;9.00;9.00;4.00
65574;PMS5003;73096;55.050;73.422;2024-01-07T01:19:58;8.00;8.00;3.00
65574;PMS5003;73096;55.050;73.422;2024-01-07T01:23:01;8.75;6.25;3.00
65574;PMS5003;73096;55.050;73.422;2024-01-07T01:26:04;9.50;7.00;3.00
65574;PMS5003;73096;55.050;73.422;2024-01-07T01:29:07;8.00;6.00;3.00
65574;PMS5003;73096;55.050;73.422;2024-01-07T01:32:10;6.00;5.00;3.00
65574;PMS5003;73096;55.050;73.422;2024-01-07T01:35:12;5.67;5.00;3.00
65574;PMS5003;73096;55.050;73.422;2024-01-07T01:38:15;7.00;6.00;2.00
65574;PMS5003;73096;55.050;73.422;2024-01-07T01:41:17;8.50;6.25;3.75
65574;PMS5003;73096;55.050;73.422;2024-01-07T01:44:20;9.00;8.00;3.00
65574;PMS5003;73096;55.050;73.422;2024-01-07T01:47:23;12.00;9.25;3.25
65574;PMS5003;73096;55.050;73.422;2024-01-07T01:50:26;16.00;15.00;7.75
65574;PMS5003;73096;55.050;73.422;2024-01-07T01:53:28;23.00;20.00;11.00
65574;PMS5003;73096;55.050;73.422;2024-01-07T01:56:30;25.50;21.00;12.50
65574;PMS5003;73096;55.050;73.422;2024-01-07T01:59:33;31.00;25.00;14.00
65574;PMS5003;73096;55.050;73.422;2024-01-07T02:02:35;32.00;26.00;14.33
65574;PMS5003;73096;55.050;73.422;2024-01-07T02:05:37;30.00;24.00;14.00
65574;PMS5003;73096;55.050;73.422;2024-01-07T02:08:39;32.00;25.00;16.00
65574;PMS5003;73096;55.050;73.422;2024-01-07T02:11:43;29.00;22.00;13.67
65574;PMS5003;73096;55.050;73.422;2024-01-07T02:14:46;24.00;20.00;12.00
65574;PMS5003;73096;55.050;73.422;2024-01-07T02:17:49;20.33;18.00;11.00
65574;PMS5003;73096;55.050;73.422;2024-01-07T02:20:53;16.00;15.00;8.00
65574;PMS5003;73096;55.050;73.422;2024-01-07T02:23:57;10.50;9.00;4.00
65574;PMS5003;73096;55.050;73.422;2024-01-07T02:27:00;10.00;8.00;3.00
65574;PMS5003;73096;55.050;73.422;2024-01-07T02:30:05;13.00;10.00;4.00
65574;PMS5003;73096;55.050;73.422;2024-01-07T02:33:08;12.00;11.00;5.25
65574;PMS5003;73096;55.050;73.422;2024-01-07T02:36:15;14.00;12.00;4.00
65574;PMS5003;73096;55.050;73.422;2024-01-07T02:39:18;13.75;12.75;4.50
65574;PMS5003;73096;55.050;73.422;2024-01-07T02:42:21;12.00;10.25;4.00
65574;PMS5003;73096;55.050;73.422;2024-01-07T02:45:24;13.00;12.00;4.50
65574;PMS5003;73096;55.050;73.422;2024-01-07T02:48:27;12.50;11.50;5.00
65574;PMS5003;73096;55.050;73.422;2024-01-07T02:51:30;15.50;14.00;6.00
65574;PMS5003;73096;55.050;73.422;2024-01-07T02:54:32;19.50;17.25;10.75
65574;PMS5003;73096;55.050;73.422;2024-01-07T02:57:36;19.00;16.00;9.00
65574;PMS5003;73096;55.050;73.422;2024-01-07T03:00:38;18.67;15.00;8.00
65574;PMS5003;73096;55.050;73.422;2024-01-07T03:03:41;17.75;16.50;8.00
65574;PMS5003;73096;55.050;73.422;2024-01-07T03:06:44;19.67;17.33;10.00
65574;PMS5003;73096;55.050;73.422;2024-01-07T03:09:48;23.50;19.00;11.00
65574;PMS5003;73096;55.050;73.422;2024-01-07T03:12:50;26.00;21.00;13.00
65574;PMS5003;73096;55.050;73.422;2024-01-07T03:15:53;24.00;21.00;13.00
65574;PMS5003;73096;55.050;73.422;2024-01-07T03:18:55;27.25;22.25;13.25
65574;PMS5003;73096;55.050;73.422;2024-01-07T03:21:58;27.50;22.50;14.00
65574;PMS5003;73096;55.050;73.422;2024-01-07T03:25:02;20.00;17.67;10.33
65574;PMS5003;73096;55.050;73.422;2024-01-07T03:28:06;14.50;13.00;6.50
65574;PMS5003;73096;55.050;73.422;2024-01-07T03:31:09;11.00;10.50;4.00
65574;PMS5003;73096;55.050;73.422;2024-01-07T03:34:12;10.00;9.00;3.00
65574;PMS5003;73096;55.050;73.422;2024-01-07T03:37:14;11.50;9.00;4.75
65574;PMS5003;73096;55.050;73.422;2024-01-07T03:40:18;17.50;14.25;8.00
65574;PMS5003;73096;55.050;73.422;2024-01-07T03:43:21;16.50;14.00;8.00
65574;PMS5003;73096;55.050;73.422;2024-01-07T03:46:23;18.67;16.33;9.00
65574;PMS5003;73096;55.050;73.422;2024-01-07T03:49:26;23.00;19.00;12.00
65574;PMS5003;73096;55.050;73.422;2024-01-07T03:52:29;22.00;19.00;11.00
65574;PMS5003;73096;55.050;73.422;2024-01-07T03:55:32;21.00;17.75;11.00
65574;PMS5003;73096;55.050;73.422;2024-01-07T03:58:36;19.00;16.25;10.50
65574;PMS5003;73096;55.050;73.422;2024-01-07T04:01:39;19.00;16.75;9.00
65574;PMS5003;73096;55.050;73.422;2024-01-07T04:04:41;15.00;14.00;8.00
65574;PMS5003;73096;55.050;73.422;2024-01-07T04:07:44;13.00;13.00;3.25
65574;PMS5003;73096;55.050;73.422;2024-01-07T04:10:48;12.75;12.25;5.25
65574;PMS5003;73096;55.050;73.422;2024-01-07T04:13:50;19.25;17.50;9.25
65574;PMS5003;73096;55.050;73.422;2024-01-07T04:16:53;23.00;19.00;12.00
65574;PMS5003;73096;55.050;73.422;2024-01-07T04:19:55;23.00;19.25;12.00
65574;PMS5003;73096;55.050;73.422;2024-01-07T04:22:58;21.00;18.00;11.50
65574;PMS5003;73096;55.050;73.422;2024-01-07T04:26:01;19.33;18.00;11.67
65574;PMS5003;73096;55.050;73.422;2024-01-07T04:29:04;15.75;13.75;7.25
65574;PMS5003;73096;55.050;73.422;2024-01-07T04:32:07;16.00;14.75;8.00
65574;PMS5003;73096;55.050;73.422;2024-01-07T04:35:11;13.50;13.50;6.00
65574;PMS5003;73096;55.050;73.422;2024-01-07T04:38:13;14.33;13.00;5.00
65574;PMS5003;73096;55.050;73.422;2024-01-07T04:41:16;14.50;12.75;4.50
65574;PMS5003;73096;55.050;73.422;2024-01-07T04:44:19;14.67;13.67;6.67
65574;PMS5003;73096;55.050;73.422;2024-01-07T04:47:31;16.33;15.00;8.00
65574;PMS5003;73096;55.050;73.422;2024-01-07T04:50:37;15.00;13.00;6.00
65574;PMS5003;73096;55.050;73.422;2024-01-07T04:53:39;13.00;13.00;5.25
65574;PMS5003;73096;55.050;73.422;2024-01-07T04:56:42;13.00;12.00;6.00
65574;PMS5003;73096;55.050;73.422;2024-01-07T04:59:44;16.00;14.00;6.00
65574;PMS5003;73096;55.050;73.422;2024-01-07T05:02:48;14.75;13.00;6.00
65574;PMS5003;73096;55.050;73.422;2024-01-07T05:05:51;14.50;13.00;6.00
65574;PMS5003;73096;55.050;73.422;2024-01-07T05:08:54;16.00;14.50;6.00
65574;PMS5003;73096;55.050;73.422;2024-01-07T05:11:57;15.00;15.00;8.00
65574;PMS5003;73096;55.050;73.422;2024-01-07T05:15:00;15.50;13.00;6.00
65574;PMS5003;73096;55.050;73.422;2024-01-07T05:18:06;17.00;15.00;8.00
65574;PMS5003;73096;55.050;73.422;2024-01-07T05:21:10;18.00;16.00;8.25
65574;PMS5003;73096;55.050;73.422;2024-01-07T05:24:13;17.67;15.00;10.00
65574;PMS5003;73096;55.050;73.422;2024-01-07T05:27:16;11.00;10.75;5.25
65574;PMS5003;73096;55.050;73.422;2024-01-07T05:30:19;10.00;9.00;3.00
65574;PMS5003;73096;55.050;73.422;2024-01-07T05:33:21;12.00;11.00;4.75
65574;PMS5003;73096;55.050;73.422;2024-01-07T05:36:24;17.67;16.00;8.00
65574;PMS5003;73096;55.050;73.422;2024-01-07T05:39:26;19.00;15.00;8.00
65574;PMS5003;73096;55.050;73.422;2024-01-07T05:42:28;17.75;14.00;6.00
65574;PMS5003;73096;55.050;73.422;2024-01-07T05:45:31;15.00;13.00;6.50
65574;PMS5003;73096;55.050;73.422;2024-01-07T05:48:44;13.75;13.00;5.00
65574;PMS5003;73096;55.050;73.422;2024-01-07T05:51:47;16.75;15.50;6.00
65574;PMS5003;73096;55.050;73.422;2024-01-07T05:54:51;19.00;17.00;8.00
65574;PMS5003;73096;55.050;73.422;2024-01-07T05:57:54;16.25;15.00;7.00
65574;PMS5003;73096;55.050;73.422;2024-01-07T06:00:57;16.00;15.00;8.00
65574;PMS5003;73096;55.050;73.422;2024-01-07T06:04:00;16.25;15.50;6.75
65574;PMS5003;73096;55.050;73.422;2024-01-07T06:07:02;13.00;11.67;5.00
65574;PMS5003;73096;55.050;73.422;2024-01-07T06:10:05;11.00;10.00;3.00
65574;PMS5003;73096;55.050;73.422;2024-01-07T06:13:09;11.25;11.00;4.50
65574;PMS5003;73096;55.050;73.422;2024-01-07T06:16:11;13.00;12.00;5.00
65574;PMS5003;73096;55.050;73.422;2024-01-07T06:19:16;13.00;12.00;5.50
65574;PMS5003;73096;55.050;73.422;2024-01-07T06:22:19;14.50;13.00;7.25
65574;PMS5003;73096;55.050;73.422;2024-01-07T06:25:21;17.00;15.00;9.00
65574;PMS5003;73096;55.050;73.422;2024-01-07T06:28:24;18.33;15.00;9.00
65574;PMS5003;73096;55.050;73.422;2024-01-07T06:31:27;18.75;15.00;9.00
65574;PMS5003;73096;55.050;73.422;2024-01-07T06:34:29;17.00;15.00;8.00
65574;PMS5003;73096;55.050;73.422;2024-01-07T06:37:32;15.00;13.75;7.00
65574;PMS5003;73096;55.050;73.422;2024-01-07T06:40:34;15.50;14.00;7.00
65574;PMS5003;73096;55.050;73.422;2024-01-07T06:43:36;14.00;13.00;7.00
65574;PMS5003;73096;55.050;73.422;2024-01-07T06:46:38;15.00;12.50;5.25
65574;PMS5003;73096;55.050;73.422;2024-01-07T06:49:41;13.00;12.25;5.50
65574;PMS5003;73096;55.050;73.422;2024-01-07T06:52:44;15.25;13.75;5.00
65574;PMS5003;73096;55.050;73.422;2024-01-07T06:55:48;14.00;12.00;5.00
65574;PMS5003;73096;55.050;73.422;2024-01-07T06:58:51;14.00;12.00;5.00
65574;PMS5003;73096;55.050;73.422;2024-01-07T07:01:55;13.25;12.00;5.00
65574;PMS5003;73096;55.050;73.422;2024-01-07T07:05:09;15.25;13.00;7.00
65574;PMS5003;73096;55.050;73.422;2024-01-07T07:08:12;14.00;14.00;7.00
65574;PMS5003;73096;55.050;73.422;2024-01-07T07:11:15;14.00;14.00;6.00
65574;PMS5003;73096;55.050;73.422;2024-01-07T07:14:19;15.00;14.00;7.00
65574;PMS5003;73096;55.050;73.422;2024-01-07T07:17:22;16.00;14.00;6.00
65574;PMS5003;73096;55.050;73.422;2024-01-07T07:20:25;16.67;14.00;7.00
65574;PMS5003;73096;55.050;73.422;2024-01-07T07:23:27;16.00;14.00;7.00
65574;PMS5003;73096;55.050;73.422;2024-01-07T07:26:29;14.00;13.00;5.00
65574;PMS5003;73096;55.050;73.422;2024-01-07T07:29:32;12.00;11.00;5.00
65574;PMS5003;73096;55.050;73.422;2024-01-07T07:32:35;11.00;8.00;3.00
65574;PMS5003;73096;55.050;73.422;2024-01-07T07:35:37;10.50;9.00;3.00
65574;PMS5003;73096;55.050;73.422;2024-01-07T07:38:42;12.00;10.67;5.00
65574;PMS5003;73096;55.050;73.422;2024-01-07T07:41:44;10.00;10.00;3.25
65574;PMS5003;73096;55.050;73.422;2024-01-07T07:44:48;12.50;11.50;4.75
65574;PMS5003;73096;55.050;73.422;2024-01-07T07:47:55;11.00;9.00;3.50
65574;PMS5003;73096;55.050;73.422;2024-01-07T07:51:01;15.00;13.00;5.00
65574;PMS5003;73096;55.050;73.422;2024-01-07T07:54:06;13.50;12.00;4.00
65574;PMS5003;73096;55.050;73.422;2024-01-07T07:57:14;12.00;10.00;5.00
65574;PMS5003;73096;55.050;73.422;2024-01-07T08:00:20;10.25;10.00;3.00
65574;PMS5003;73096;55.050;73.422;2024-01-07T08:03:27;11.75;9.00;3.00
65574;PMS5003;73096;55.050;73.422;2024-01-07T08:06:35;10.00;7.25;3.00
65574;PMS5003;73096;55.050;73.422;2024-01-07T08:09:39;9.75;8.75;4.00
65574;PMS5003;73096;55.050;73.422;2024-01-07T08:12:45;8.00;7.00;3.00
65574;PMS5003;73096;55.050;73.422;2024-01-07T08:15:51;8.75;7.00;3.00
65574;PMS5003;73096;55.050;73.422;2024-01-07T08:18:56;8.67;7.33;3.00
65574;PMS5003;73096;55.050;73.422;2024-01-07T08:22:00;10.00;6.25;3.00
65574;PMS5003;73096;55.050;73.422;2024-01-07T08:25:03;8.75;5.00;3.00
65574;PMS5003;73096;55.050;73.422;2024-01-07T08:28:07;8.00;5.00;3.00
65574;PMS5003;73096;55.050;73.422;2024-01-07T08:31:13;9.00;6.00;2.00
65574;PMS5003;73096;55.050;73.422;2024-01-07T08:34:16;8.00;5.00;2.00
65574;PMS5003;73096;55.050;73.422;2024-01-07T08:37:20;5.75;5.00;2.00
65574;PMS5003;73096;55.050;73.422;2024-01-07T08:40:24;4.50;4.50;2.00
65574;PMS5003;73096;55.050;73.422;2024-01-07T08:43:30;5.00;5.00;2.25
65574;PMS5003;73096;55.050;73.422;2024-01-07T08:46:34;6.25;6.25;2.25
65574;PMS5003;73096;55.050;73.422;2024-01-07T08:49:38;6.33;5.00;1.00
65574;PMS5003;73096;55.050;73.422;2024-01-07T08:52:44;5.00;5.00;3.00
65574;PMS5003;73096;55.050;73.422;2024-01-07T08:55:51;7.50;5.50;2.00
65574;PMS5003;73096;55.050;73.422;2024-01-07T08:58:57;6.00;5.00;2.00
65574;PMS5003;73096;55.050;73.422;2024-01-07T09:02:04;4.00;3.00;1.67
65574;PMS5003;73096;55.050;73.422;2024-01-07T09:05:11;5.00;5.00;3.00
65574;PMS5003;73096;55.050;73.422;2024-01-07T09:08:18;7.00;5.00;2.00
65574;PMS5003;73096;55.050;73.422;2024-01-07T09:11:21;6.00;4.33;1.00
65574;PMS5003;73096;55.050;73.422;2024-01-07T09:14:23;6.67;5.00;1.00
65574;PMS5003;73096;55.050;73.422;2024-01-07T09:17:28;6.25;5.50;3.00
65574;PMS5003;73096;55.050;73.422;2024-01-07T09:20:33;9.00;8.00;3.00
65574;PMS5003;73096;55.050;73.422;2024-01-07T09:23:38;7.00;5.00;2.67
65574;PMS5003;73096;55.050;73.422;2024-01-07T09:26:44;7.75;7.00;3.00
65574;PMS5003;73096;55.050;73.422;2024-01-07T09:29:52;10.75;9.00;4.00
65574;PMS5003;73096;55.050;73.422;2024-01-07T09:32:57;14.00;12.50;5.00
65574;PMS5003;73096;55.050;73.422;2024-01-07T09:35:59;15.00;12.00;3.00
65574;PMS5003;73096;55.050;73.422;2024-01-07T09:39:04;11.75;10.75;3.00
65574;PMS5003;73096;55.050;73.422;2024-01-07T09:42:16;9.50;8.50;3.00
65574;PMS5003;73096;55.050;73.422;2024-01-07T09:45:25;8.00;5.00;2.75
65574;PMS5003;73096;55.050;73.422;2024-01-07T09:48:29;7.25;6.00;3.00
65574;PMS5003;73096;55.050;73.422;2024-01-07T09:51:44;9.00;7.00;3.00
65574;PMS5003;73096;55.050;73.422;2024-01-07T09:54:57;10.75;8.00;3.00
65574;PMS5003;73096;55.050;73.422;2024-01-07T09:58:06;11.00;9.00;3.00
65574;PMS5003;73096;55.050;73.422;2024-01-07T10:01:12;10.75;6.00;2.75
65574;PMS5003;73096;55.050;73.422;2024-01-07T10:04:16;10.50;8.75;3.00
65574;PMS5003;73096;55.050;73.422;2024-01-07T10:07:22;10.75;8.00;3.00
65574;PMS5003;73096;55.050;73.422;2024-01-07T10:10:28;12.50;10.00;3.00
65574;PMS5003;73096;55.050;73.422;2024-01-07T10:13:36;13.00;12.00;5.00
65574;PMS5003;73096;55.050;73.422;2024-01-07T10:16:42;13.00;12.25;5.00
65574;PMS5003;73096;55.050;73.422;2024-01-07T10:19:49;12.00;12.00;4.00
65574;PMS5003;73096;55.050;73.422;2024-01-07T10:22:55;11.00;11.00;3.25
65574;PMS5003;73096;55.050;73.422;2024-01-07T10:26:03;12.00;10.50;4.00
65574;PMS5003;73096;55.050;73.422;2024-01-07T10:29:07;12.50;10.00;4.00
65574;PMS5003;73096;55.050;73.422;2024-01-07T10:32:11;11.25;10.75;3.00
65574;PMS5003;73096;55.050;73.422;2024-01-07T10:35:21;13.25;12.25;6.00
65574;PMS5003;73096;55.050;73.422;2024-01-07T10:38:29;14.00;12.75;5.50
65574;PMS5003;73096;55.050;73.422;2024-01-07T10:41:37;13.00;12.00;5.00
65574;PMS5003;73096;55.050;73.422;2024-01-07T10:44:43;14.00;14.00;7.00
65574;PMS5003;73096;55.050;73.422;2024-01-07T10:47:55;13.00;12.75;7.00
65574;PMS5003;73096;55.050;73.422;2024-01-07T10:51:03;13.00;11.50;5.00
65574;PMS5003;73096;55.050;73.422;2024-01-07T10:54:11;13.00;12.50;6.50
65574;PMS5003;73096;55.050;73.422;2024-01-07T11:00:47;13.00;13.00;5.00
65574;PMS5003;73096;55.050;73.422;2024-01-07T11:07:17;16.00;15.00;8.00
65574;PMS5003;73096;55.050;73.422;2024-01-07T11:10:31;17.67;16.00;7.00
65574;PMS5003;73096;55.050;73.422;2024-01-07T11:13:45;16.33;15.33;5.67
65574;PMS5003;73096;55.050;73.422;2024-01-07T11:16:49;18.00;13.00;6.00
65574;PMS5003;73096;55.050;73.422;2024-01-07T11:19:55;14.25;11.00;5.00
65574;PMS5003;73096;55.050;73.422;2024-01-07T11:26:47;13.25;11.00;5.00
65574;PMS5003;73096;55.050;73.422;2024-01-07T11:29:55;14.00;12.00;4.50
65574;PMS5003;73096;55.050;73.422;2024-01-07T11:33:05;12.00;12.00;4.00
65574;PMS5003;73096;55.050;73.422;2024-01-07T11:36:17;12.00;11.00;5.00
65574;PMS5003;73096;55.050;73.422;2024-01-07T11:39:30;12.50;11.00;5.00
65574;PMS5003;73096;55.050;73.422;2024-01-07T11:42:48;13.00;11.00;5.00
65574;PMS5003;73096;55.050;73.422;2024-01-07T11:46:04;10.75;9.00;3.25
65574;PMS5003;73096;55.050;73.422;2024-01-07T11:49:14;9.75;9.00;4.00
65574;PMS5003;73096;55.050;73.422;2024-01-07T11:52:25;12.25;10.75;3.00
65574;PMS5003;73096;55.050;73.422;2024-01-07T11:55:36;11.50;10.00;3.00
65574;PMS5003;73096;55.050;73.422;2024-01-07T11:58:49;10.50;8.50;3.00
65574;PMS5003;73096;55.050;73.422;2024-01-07T12:02:02;12.00;10.25;3.00
65574;PMS5003;73096;55.050;73.422;2024-01-07T12:05:16;11.25;9.50;3.00
65574;PMS5003;73096;55.050;73.422;2024-01-07T12:08:24;12.50;10.50;4.00
65574;PMS5003;73096;55.050;73.422;2024-01-07T12:11:35;11.00;9.00;2.00
65574;PMS5003;73096;55.050;73.422;2024-01-07T12:14:47;10.00;9.00;2.25
65574;PMS5003;73096;55.050;73.422;2024-01-07T12:17:57;11.00;9.00;3.00
65574;PMS5003;73096;55.050;73.422;2024-01-07T12:21:07;11.00;9.00;1.00
65574;PMS5003;73096;55.050;73.422;2024-01-07T12:24:24;12.00;9.50;3.00
65574;PMS5003;73096;55.050;73.422;2024-01-07T12:27:49;11.00;9.00;3.00
65574;PMS5003;73096;55.050;73.422;2024-01-07T12:31:05;11.75;10.00;5.00
65574;PMS5003;73096;55.050;73.422;2024-01-07T12:34:15;14.75;11.00;3.00
65574;PMS5003;73096;55.050;73.422;2024-01-07T12:37:42;14.75;13.00;5.00
65574;PMS5003;73096;55.050;73.422;2024-01-07T12:40:58;15.25;13.00;5.00
65574;PMS5003;73096;55.050;73.422;2024-01-07T12:44:10;15.00;14.00;5.00
65574;PMS5003;73096;55.050;73.422;2024-01-07T12:47:32;15.75;13.00;5.00
65574;PMS5003;73096;55.050;73.422;2024-01-07T12:50:51;14.50;13.00;4.00
65574;PMS5003;73096;55.050;73.422;2024-01-07T12:54:06;14.75;13.00;4.50
65574;PMS5003;73096;55.050;73.422;2024-01-07T12:57:14;15.00;13.00;4.25
65574;PMS5003;73096;55.050;73.422;2024-01-07T13:00:27;12.50;11.75;4.00
65574;PMS5003;73096;55.050;73.422;2024-01-07T13:03:37;12.00;11.00;3.00
65574;PMS5003;73096;55.050;73.422;2024-01-07T13:06:58;9.25;7.00;2.00
65574;PMS5003;73096;55.050;73.422;2024-01-07T13:10:11;7.25;5.00;3.00
65574;PMS5003;73096;55.050;73.422;2024-01-07T13:13:23;9.00;7.00;2.67
65574;PMS5003;73096;55.050;73.422;2024-01-07T13:16:40;7.50;6.50;2.00
65574;PMS5003;73096;55.050;73.422;2024-01-07T13:19:49;9.33;7.00;2.67
65574;PMS5003;73096;55.050;73.422;2024-01-07T13:23:02;9.25;8.25;4.00
65574;PMS5003;73096;55.050;73.422;2024-01-07T13:26:17;11.00;10.25;3.00
65574;PMS5003;73096;55.050;73.422;2024-01-07T13:29:29;15.00;15.00;7.00
65574;PMS5003;73096;55.050;73.422;2024-01-07T13:32:42;13.00;13.00;4.00
65574;PMS5003;73096;55.050;73.422;2024-01-07T13:36:12;14.00;12.25;3.00
65574;PMS5003;73096;55.050;73.422;2024-01-07T13:39:30;12.00;9.00;3.00
65574;PMS5003;73096;55.050;73.422;2024-01-07T13:42:59;11.25;9.25;5.00
65574;PMS5003;73096;55.050;73.422;2024-01-07T13:46:23;15.75;12.25;6.00
65574;PMS5003;73096;55.050;73.422;2024-01-07T13:49:51;18.25;15.00;6.25
65574;PMS5003;73096;55.050;73.422;2024-01-07T13:53:16;19.25;16.50;8.00
65574;PMS5003;73096;55.050;73.422;2024-01-07T13:56:19;21.00;18.00;10.00
65574;PMS5003;73096;55.050;73.422;2024-01-07T13:59:22;20.00;18.00;9.00
65574;PMS5003;73096;55.050;73.422;2024-01-07T14:02:26;17.00;16.25;9.00
65574;PMS5003;73096;55.050;73.422;2024-01-07T14:05:32;19.75;16.00;8.00
65574;PMS5003;73096;55.050;73.422;2024-01-07T14:08:40;17.00;13.00;5.75
65574;PMS5003;73096;55.050;73.422;2024-01-07T14:11:51;15.00;13.00;5.33
65574;PMS5003;73096;55.050;73.422;2024-01-07T14:14:57;13.00;12.00;3.00
65574;PMS5003;73096;55.050;73.422;2024-01-07T14:18:04;12.00;10.00;2.00
65574;PMS5003;73096;55.050;73.422;2024-01-07T14:21:11;12.00;10.00;3.00
65574;PMS5003;73096;55.050;73.422;2024-01-07T14:24:16;11.00;10.25;4.00
65574;PMS5003;73096;55.050;73.422;2024-01-07T14:27:21;12.75;11.00;4.00
65574;PMS5003;73096;55.050;73.422;2024-01-07T14:30:26;13.00;12.75;3.00
65574;PMS5003;73096;55.050;73.422;2024-01-07T14:33:30;13.00;13.00;5.00
65574;PMS5003;73096;55.050;73.422;2024-01-07T14:36:33;12.75;12.00;3.50
65574;PMS5003;73096;55.050;73.422;2024-01-07T14:39:36;13.00;13.00;5.00
65574;PMS5003;73096;55.050;73.422;2024-01-07T14:42:39;13.00;13.00;4.00
65574;PMS5003;73096;55.050;73.422;2024-01-07T14:45:43;13.00;11.00;4.50
65574;PMS5003;73096;55.050;73.422;2024-01-07T14:48:46;11.00;11.00;3.00
65574;PMS5003;73096;55.050;73.422;2024-01-07T14:51:49;14.00;12.75;4.00
65574;PMS5003;73096;55.050;73.422;2024-01-07T14:54:52;15.00;12.00;4.00
65574;PMS5003;73096;55.050;73.422;2024-01-07T14:57:56;14.25;13.00;4.00
65574;PMS5003;73096;55.050;73.422;2024-01-07T15:00:59;14.00;12.00;4.75
65574;PMS5003;73096;55.050;73.422;2024-01-07T15:04:03;12.75;12.00;3.75
65574;PMS5003;73096;55.050;73.422;2024-01-07T15:07:06;13.50;11.00;3.75
65574;PMS5003;73096;55.050;73.422;2024-01-07T15:10:10;15.00;13.00;4.00
65574;PMS5003;73096;55.050;73.422;2024-01-07T15:13:13;13.00;12.00;3.75
65574;PMS5003;73096;55.050;73.422;2024-01-07T15:16:15;12.00;11.00;3.00
65574;PMS5003;73096;55.050;73.422;2024-01-07T15:19:18;12.25;11.50;4.00
65574;PMS5003;73096;55.050;73.422;2024-01-07T15:22:21;12.25;12.00;4.00
65574;PMS5003;73096;55.050;73.422;2024-01-07T15:25:24;14.75;12.00;4.00
65574;PMS5003;73096;55.050;73.422;2024-01-07T15:28:28;13.75;12.00;4.00
65574;PMS5003;73096;55.050;73.422;2024-01-07T15:31:33;13.00;11.00;2.50
65574;PMS5003;73096;55.050;73.422;2024-01-07T15:34:37;13.00;11.00;4.00
65574;PMS5003;73096;55.050;73.422;2024-01-07T15:37:40;12.00;10.50;4.25
65574;PMS5003;73096;55.050;73.422;2024-01-07T15:40:42;15.00;12.00;5.00
65574;PMS5003;73096;55.050;73.422;2024-01-07T15:43:45;12.00;10.00;4.00
65574;PMS5003;73096;55.050;73.422;2024-01-07T15:46:50;12.50;10.75;4.00
65574;PMS5003;73096;55.050;73.422;2024-01-07T15:49:59;14.25;12.00;4.25
65574;PMS5003;73096;55.050;73.422;2024-01-07T15:53:02;12.00;11.00;4.00
65574;PMS5003;73096;55.050;73.422;2024-01-07T15:56:05;12.00;11.25;4.00
65574;PMS5003;73096;55.050;73.422;2024-01-07T15:59:09;13.00;12.75;4.00
65574;PMS5003;73096;55.050;73.422;2024-01-07T16:02:12;12.50;12.00;4.75
65574;PMS5003;73096;55.050;73.422;2024-01-07T16:05:15;12.00;11.25;3.00
65574;PMS5003;73096;55.050;73.422;2024-01-07T16:08:21;12.00;9.00;2.75
65574;PMS5003;73096;55.050;73.422;2024-01-07T16:11:23;11.75;9.00;3.25
65574;PMS5003;73096;55.050;73.422;2024-01-07T16:14:26;12.25;10.25;4.00
65574;PMS5003;73096;55.050;73.422;2024-01-07T16:17:30;13.00;12.00;4.00
65574;PMS5003;73096;55.050;73.422;2024-01-07T16:20:48;13.25;11.50;3.50
65574;PMS5003;73096;55.050;73.422;2024-01-07T16:23:50;12.00;10.50;4.00
65574;PMS5003;73096;55.050;73.422;2024-01-07T16:26:53;12.00;11.50;2.25
65574;PMS5003;73096;55.050;73.422;2024-01-07T16:29:57;13.50;12.00;4.00
65574;PMS5003;73096;55.050;73.422;2024-01-07T16:33:00;12.00;12.00;2.00
65574;PMS5003;73096;55.050;73.422;2024-01-07T16:36:07;14.00;12.00;4.00
65574;PMS5003;73096;55.050;73.422;2024-01-07T16:39:10;12.00;10.00;4.00
65574;PMS5003;73096;55.050;73.422;2024-01-07T16:42:14;15.75;12.25;5.50
65574;PMS5003;73096;55.050;73.422;2024-01-07T16:45:17;14.25;14.00;5.00
65574;PMS5003;73096;55.050;73.422;2024-01-07T16:48:20;16.75;13.00;4.00
65574;PMS5003;73096;55.050;73.422;2024-01-07T16:51:24;15.00;13.00;4.50
65574;PMS5003;73096;55.050;73.422;2024-01-07T16:54:26;17.50;15.00;5.00
65574;PMS5003;73096;55.050;73.422;2024-01-07T16:57:32;18.00;16.00;5.00
65574;PMS5003;73096;55.050;73.422;2024-01-07T17:00:36;16.00;15.75;5.00
65574;PMS5003;73096;55.050;73.422;2024-01-07T17:03:38;18.00;16.00;5.25
65574;PMS5003;73096;55.050;73.422;2024-01-07T17:06:41;18.50;17.00;6.00
65574;PMS5003;73096;55.050;73.422;2024-01-07T17:09:43;16.00;15.00;6.00
65574;PMS5003;73096;55.050;73.422;2024-01-07T17:12:45;16.00;14.50;4.25
65574;PMS5003;73096;55.050;73.422;2024-01-07T17:15:48;16.75;14.75;5.75
65574;PMS5003;73096;55.050;73.422;2024-01-07T17:18:50;17.00;15.00;6.00
65574;PMS5003;73096;55.050;73.422;2024-01-07T17:21:53;16.00;14.00;5.00
65574;PMS5003;73096;55.050;73.422;2024-01-07T17:24:57;16.50;12.25;5.00
65574;PMS5003;73096;55.050;73.422;2024-01-07T17:27:59;15.00;13.00;4.00
65574;PMS5003;73096;55.050;73.422;2024-01-07T17:31:02;14.25;13.00;6.00
65574;PMS5003;73096;55.050;73.422;2024-01-07T17:34:05;13.25;12.00;4.00
65574;PMS5003;73096;55.050;73.422;2024-01-07T17:37:15;15.67;13.33;6.00